Time;durP1;ratioP1;P1;durP2;ratioP2;P2;SDS_P1;SDS_P2;PMS_P1;PMS_P2;Temp;Humidity;BMP_temperature;BMP_pressure;BME280_temperature;BME280_humidity;BME280_pressure;Samples;Min_cycle;Max_cycle;Signal;HPM_P1;HPM_P2
2022/01/09 13:20:16;;;;;;;0.60;0.60;;;13.90;75.90;;;14.09;75.69;97868.94;5090679;27;20579;-32
2022/01/09 13:22:42;;;;;;;0.60;0.60;;;14.00;77.40;;;14.45;75.21;97896.03;5039861;28;20332;-32
2022/01/09 13:25:09;;;;;;;0.57;0.57;;;14.20;77.70;;;14.67;73.99;97891.81;5052706;28;20195;-33
2022/01/09 13:27:36;;;;;;;1.90;0.90;;;14.50;77.50;;;14.88;72.39;97885.19;5052883;28;20218;-32
2022/01/09 13:30:02;;;;;;;1.35;0.70;;;14.70;76.90;;;15.10;71.61;97897.34;5052667;28;20218;-33
2022/01/09 13:32:28;;;;;;;0.70;0.70;;;14.90;76.10;;;15.14;70.73;97876.03;5070577;28;20179;-32
2022/01/09 13:34:55;;;;;;;1.27;0.70;;;15.20;75.30;;;15.42;69.79;97891.84;5036188;28;20191;-33
2022/01/09 13:37:21;;;;;;;0.77;0.68;;;15.40;74.60;;;15.62;68.66;97915.56;5053006;28;20183;-33
2022/01/09 13:39:55;;;;;;;0.80;0.80;;;15.60;73.80;;;15.77;68.09;97898.16;5035892;28;20221;-33
2022/01/09 13:42:25;;;;;;;0.70;0.70;;;15.80;72.90;;;15.92;67.40;97904.16;5053773;28;20195;-32
2022/01/09 13:45:08;;;;;;;1.48;0.77;;;16.10;72.10;;;16.12;66.32;97898.41;5036243;28;20198;-32
2022/01/09 13:47:45;;;;;;;1.05;0.93;;;16.30;71.20;;;16.27;65.40;97892.19;5070111;28;20195;-33
2022/01/09 13:50:13;;;;;;;0.68;0.68;;;16.50;70.20;;;16.40;64.71;97891.50;5070329;28;20285;-33
2022/01/09 13:52:39;;;;;;;1.10;0.75;;;16.70;69.40;;;16.56;64.21;97899.09;5055948;28;20285;-34
2022/01/09 13:55:13;;;;;;;1.02;0.95;;;16.90;68.70;;;16.67;63.96;97900.44;5070226;28;20198;-42
2022/01/09 13:58:07;;;;;;;0.68;0.68;;;17.10;68.00;;;16.77;63.12;97898.34;5071675;28;20185;-32
2022/01/09 14:00:40;;;;;;;0.70;0.70;;;17.30;67.10;;;16.66;62.98;97860.56;5071892;28;20612;-34
2022/01/09 14:03:09;;;;;;;0.82;0.73;;;17.50;67.30;;;16.85;62.71;97887.78;5072199;28;20647;-32
2022/01/09 14:05:41;;;;;;;0.82;0.82;;;17.60;66.20;;;16.60;62.41;97847.47;5072713;28;20651;-33
2022/01/09 14:08:07;;;;;;;0.75;0.75;;;17.60;65.60;;;16.89;62.16;97906.44;5090173;28;20182;-33
2022/01/09 14:11:15;;;;;;;0.60;0.60;;;17.60;64.60;;;16.86;62.29;97888.59;5090492;27;20624;-35
2022/01/09 14:13:42;;;;;;;0.85;0.85;;;17.70;65.20;;;16.90;62.29;97895.03;5053091;28;20226;-36
2022/01/09 14:16:13;;;;;;;0.70;0.70;;;17.80;65.20;;;16.85;62.40;97886.97;5053156;28;20191;-36
2022/01/09 14:18:39;;;;;;;0.88;0.63;;;17.80;65.10;;;16.99;62.23;97899.94;5021140;28;20191;-36
2022/01/09 14:21:15;;;;;;;0.75;0.75;;;17.90;64.90;;;17.02;62.01;97906.56;5036123;28;20191;-36
2022/01/09 14:23:43;;;;;;;0.80;0.60;;;18.00;64.70;;;16.82;62.00;97882.13;5052760;28;20218;-35
2022/01/09 14:56:42;;;;;;;0.90;0.65;;;16.80;64.80;;;15.79;65.13;97963.00;5088569;27;20546;-38
2022/01/09 14:59:08;;;;;;;0.60;0.60;;;16.70;66.30;;;15.84;65.19;97965.84;5052489;28;20191;-38
2022/01/09 15:01:34;;;;;;;0.50;0.50;;;16.70;67.20;;;15.86;65.98;97961.28;5069873;28;20191;-39
2022/01/09 15:04:00;;;;;;;0.77;0.70;;;16.70;67.60;;;15.97;66.18;97971.25;5069373;28;20285;-38
2022/01/09 15:06:27;;;;;;;0.80;0.80;;;16.80;67.80;;;16.04;65.83;97974.75;5070632;28;20218;-38
2022/01/09 15:08:53;;;;;;;0.65;0.65;;;16.90;68.70;;;16.14;65.70;97983.06;5069411;28;20215;-39
2022/01/09 15:11:19;;;;;;;0.75;0.75;;;17.00;67.80;;;16.18;65.34;97967.94;5069316;28;20194;-38
2022/01/09 15:13:45;;;;;;;0.70;0.70;;;17.10;67.50;;;16.28;65.14;97979.69;5069503;28;20194;-38
2022/01/09 15:16:12;;;;;;;0.80;0.80;;;17.10;67.20;;;16.32;64.94;97977.50;5052438;28;20207;-40
2022/01/09 15:18:38;;;;;;;0.32;0.32;;;17.20;67.10;;;16.31;64.88;97987.09;5036606;28;20187;-38
2022/01/09 15:21:03;;;;;;;0.70;0.70;;;17.20;66.90;;;16.42;64.34;97995.44;5052435;28;20255;-39
2022/01/09 15:23:29;;;;;;;0.80;0.80;;;17.30;66.70;;;16.48;64.25;97997.31;5052685;28;20206;-38
2022/01/09 15:25:55;;;;;;;0.50;0.50;;;17.30;66.60;;;16.49;64.36;97993.72;5069251;28;20203;-38
2022/01/09 15:28:22;;;;;;;0.70;0.70;;;17.30;66.50;;;16.54;64.09;97994.81;5068873;28;20194;-39
2022/01/09 15:30:48;;;;;;;0.70;0.70;;;17.40;66.50;;;16.53;63.41;98003.63;5068041;28;20429;-39
2022/01/09 15:33:15;;;;;;;0.60;0.60;;;17.40;66.40;;;16.56;63.24;98011.03;5035748;28;20554;-39
2022/01/09 15:35:45;;;;;;;0.73;0.73;;;17.40;66.00;;;16.54;63.25;98020.84;5068711;28;20207;-39
2022/01/09 15:38:11;;;;;;;0.70;0.70;;;17.30;65.80;;;16.56;63.19;98018.84;5052616;28;20206;-39
2022/01/09 15:40:37;;;;;;;0.70;0.70;;;17.30;65.80;;;16.38;62.91;97989.00;5068759;28;20586;-39
2022/01/09 15:43:04;;;;;;;0.57;0.57;;;17.30;65.70;;;16.31;63.35;98004.53;5069684;28;20183;-39
2022/01/09 15:45:30;;;;;;;0.98;0.70;;;17.20;65.70;;;16.20;63.26;97991.97;5035515;28;20286;-39
2022/01/09 15:47:57;;;;;;;0.80;0.80;;;17.20;65.90;;;16.30;63.69;98026.34;5052263;28;20179;-39
2022/01/09 15:50:23;;;;;;;0.80;0.68;;;17.10;66.10;;;16.41;63.53;98030.28;5068482;28;20759;-38
2022/01/09 15:52:49;;;;;;;1.42;0.88;;;17.10;66.20;;;16.35;64.03;98042.22;5069612;28;20188;-39
2022/01/09 15:55:15;;;;;;;0.73;0.60;;;17.10;66.50;;;16.13;64.29;98012.72;5067565;28;20322;-39
2022/01/09 15:57:42;;;;;;;1.95;0.82;;;17.00;66.70;;;16.24;64.07;98034.84;5069406;28;20183;-40
2022/01/09 16:00:12;;;;;;;0.70;0.70;;;17.00;66.90;;;16.09;64.22;98011.44;5068455;28;20211;-39
2022/01/09 16:02:39;;;;;;;0.73;0.70;;;16.90;66.90;;;16.27;64.34;98039.72;5035061;28;20184;-39
2022/01/09 16:05:06;;;;;;;0.70;0.70;;;16.90;67.00;;;16.08;64.46;97998.59;5068241;28;20286;-39
2022/01/09 16:07:32;;;;;;;0.57;0.57;;;16.90;67.10;;;16.20;64.26;98024.00;5058996;28;20333;-39
2022/01/09 16:09:58;;;;;;;0.70;0.70;;;16.90;67.20;;;16.30;64.32;98041.97;5054714;28;20696;-38
2022/01/09 16:12:24;;;;;;;0.80;0.80;;;16.90;67.10;;;16.24;64.52;98037.47;5039057;28;20195;-37
2022/01/09 16:14:50;;;;;;;0.70;0.70;;;16.90;67.20;;;16.22;64.95;98053.28;5054853;28;20207;-37
2022/01/09 16:17:16;;;;;;;0.82;0.80;;;16.90;67.50;;;16.07;64.89;98023.81;5038329;28;20191;-38
2022/01/09 16:19:42;;;;;;;0.90;0.90;;;16.90;67.80;;;16.08;64.83;98030.63;5055064;28;20712;-38
2022/01/09 16:22:08;;;;;;;0.60;0.60;;;16.90;67.80;;;16.34;64.96;98057.03;5021820;28;20187;-38
2022/01/09 16:24:34;;;;;;;1.13;0.65;;;16.90;67.70;;;16.30;64.83;98058.41;5021859;28;20637;-37
2022/01/09 16:27:02;;;;;;;0.50;0.50;;;17.00;67.70;;;16.36;64.60;98072.47;5037869;28;20278;-38
2022/01/09 16:29:28;;;;;;;0.85;0.80;;;17.00;67.60;;;16.40;64.55;98068.50;5038364;28;20218;-37
2022/01/09 16:31:54;;;;;;;0.85;0.80;;;17.00;67.50;;;16.45;64.73;98062.78;5021686;28;20282;-37
2022/01/09 16:34:20;;;;;;;0.70;0.70;;;17.10;67.40;;;16.49;64.17;98071.84;5038225;28;20210;-37
2022/01/09 16:36:46;;;;;;;0.93;0.90;;;17.20;67.30;;;16.48;64.35;98073.63;5021755;28;20249;-37
2022/01/09 16:39:12;;;;;;;0.68;0.68;;;17.20;67.20;;;16.29;64.04;98046.38;5054499;28;20194;-37
2022/01/09 16:41:43;;;;;;;0.77;0.70;;;17.20;67.00;;;16.28;64.05;98047.34;5038164;28;20188;-37
2022/01/09 16:44:10;;;;;;;0.85;0.82;;;17.20;66.90;;;16.49;64.18;98079.66;5021709;28;20219;-37
2022/01/09 16:46:40;;;;;;;0.95;0.80;;;17.20;66.90;;;16.47;64.29;98074.63;5037896;28;20187;-37
2022/01/09 16:49:06;;;;;;;0.80;0.80;;;17.20;66.90;;;16.46;64.21;98072.22;5038249;28;20218;-37
2022/01/09 16:51:32;;;;;;;0.75;0.75;;;17.20;66.90;;;16.52;63.97;98077.50;5037940;28;20184;-38
2022/01/09 16:53:58;;;;;;;0.70;0.70;;;17.20;67.60;;;16.57;63.89;98085.56;5038548;28;20544;-37
2022/01/09 16:56:26;;;;;;;0.68;0.68;;;17.20;66.80;;;16.58;63.93;98084.59;5037215;28;20699;-38
2022/01/09 16:58:52;;;;;;;0.80;0.80;;;17.30;66.90;;;16.55;63.97;98091.97;5037953;28;20191;-38
2022/01/09 17:01:20;;;;;;;0.65;0.65;;;17.30;66.90;;;16.57;63.93;98090.78;5037664;28;20242;-38
2022/01/09 17:03:48;;;;;;;0.90;0.80;;;17.30;66.80;;;16.55;63.76;98089.38;5055393;28;20189;-37
2022/01/09 17:06:16;;;;;;;0.70;0.70;;;17.30;66.70;;;16.58;63.68;98086.38;5037769;28;20184;-37
2022/01/09 17:08:43;;;;;;;0.50;0.50;;;17.30;66.60;;;16.44;63.59;98056.78;5037605;28;20604;-37
2022/01/09 17:11:11;;;;;;;0.70;0.70;;;17.30;66.60;;;16.68;63.51;98097.38;5021049;28;20266;-38
2022/01/09 17:13:37;;;;;;;0.80;0.80;;;17.30;66.60;;;16.64;63.55;98099.50;5021308;28;20192;-37
2022/01/09 17:16:04;;;;;;;0.68;0.60;;;17.30;66.50;;;16.64;63.43;98106.50;5053826;28;20303;-38
2022/01/09 17:18:30;;;;;;;0.70;0.70;;;17.30;66.40;;;16.48;63.56;98094.44;5036532;28;20195;-37
2022/01/09 17:20:56;;;;;;;0.60;0.60;;;17.30;66.40;;;16.46;63.27;98096.44;5053727;28;20245;-38
2022/01/09 17:23:23;;;;;;;0.70;0.70;;;17.30;66.50;;;16.48;63.48;98093.66;5053925;28;20549;-38
2022/01/09 17:25:51;;;;;;;0.73;0.73;;;17.30;66.50;;;16.46;63.94;98080.84;5053408;28;20566;-37
2022/01/09 17:28:17;;;;;;;1.38;0.80;;;17.30;66.50;;;16.64;63.53;98106.50;5053747;28;20587;-37
2022/01/09 17:30:43;;;;;;;0.77;0.77;;;17.30;66.50;;;16.48;63.50;98080.63;5037374;28;20191;-37
2022/01/09 17:33:09;;;;;;;0.70;0.70;;;17.40;66.50;;;16.73;63.30;98119.28;5054014;28;20283;-37
2022/01/09 17:35:36;;;;;;;1.42;1.00;;;17.40;66.40;;;16.74;63.27;98120.06;5037169;28;20203;-37
2022/01/09 17:38:04;;;;;;;0.63;0.63;;;17.40;67.10;;;16.74;63.03;98110.47;5020877;28;20283;-37
2022/01/09 17:40:30;;;;;;;0.60;0.60;;;17.40;66.30;;;16.78;62.94;98118.75;5020571;28;20681;-37
2022/01/09 17:42:56;;;;;;;0.60;0.60;;;17.50;66.20;;;16.74;62.89;98117.47;5020550;28;20191;-36
2022/01/09 17:45:22;;;;;;;0.60;0.60;;;17.50;66.10;;;16.77;62.95;98124.13;5037002;28;20200;-38
2022/01/09 17:47:48;;;;;;;0.95;0.70;;;17.50;66.00;;;16.76;63.10;98114.69;5020446;28;20222;-35
2022/01/09 17:50:14;;;;;;;0.70;0.70;;;17.50;66.00;;;16.74;62.99;98118.28;5004010;28;20210;-37
2022/01/09 17:52:41;;;;;;;0.80;0.80;;;17.50;66.00;;;16.80;62.85;98124.56;5020577;28;20187;-37
2022/01/09 17:55:08;;;;;;;0.68;0.68;;;17.50;65.90;;;16.77;62.98;98124.13;5019916;28;20741;-37
2022/01/09 17:57:35;;;;;;;1.02;0.95;;;17.50;65.80;;;16.79;62.75;98127.38;5036310;28;20223;-36
2022/01/09 18:00:05;;;;;;;0.70;0.70;;;17.50;65.90;;;16.81;62.85;98128.78;5036662;28;20179;-37
2022/01/09 18:02:31;;;;;;;0.70;0.70;;;17.50;65.80;;;16.82;62.71;98130.41;5053061;28;20195;-38
2022/01/09 18:04:57;;;;;;;0.70;0.70;;;17.50;65.80;;;16.80;62.73;98134.97;5036504;28;20236;-38
2022/01/09 18:07:23;;;;;;;0.63;0.63;;;17.50;65.70;;;16.72;63.07;98133.28;5020270;28;20188;-39
2022/01/09 18:09:49;;;;;;;0.70;0.70;;;17.50;65.70;;;16.74;63.06;98131.31;5036342;28;20560;-37
2022/01/09 18:12:15;;;;;;;0.60;0.60;;;17.50;65.90;;;16.68;63.29;98134.63;5036425;28;20697;-37
2022/01/09 18:14:41;;;;;;;0.70;0.70;;;17.50;66.10;;;16.73;63.19;98144.50;5036270;28;20196;-37
2022/01/09 18:17:07;;;;;;;0.75;0.75;;;17.50;66.00;;;16.79;63.16;98143.81;5019477;28;20628;-38
2022/01/09 18:19:33;;;;;;;0.85;0.80;;;17.50;66.00;;;16.76;63.02;98141.56;5019680;28;20217;-38
2022/01/09 18:21:59;;;;;;;0.80;0.80;;;17.50;66.10;;;16.82;62.79;98151.25;5036135;28;20613;-37
2022/01/09 18:24:25;;;;;;;0.82;0.80;;;17.50;65.90;;;16.51;62.66;98099.31;5003362;28;20183;-38
2022/01/09 18:26:51;;;;;;;0.70;0.70;;;17.50;65.70;;;16.83;62.70;98152.84;5019475;28;20192;-39
2022/01/09 18:29:22;;;;;;;0.73;0.73;;;17.50;65.70;;;16.83;62.68;98154.66;5035759;28;20224;-38
2022/01/09 18:31:51;;;;;;;0.50;0.50;;;17.50;65.70;;;16.67;62.50;98125.19;5021006;28;20230;-38
2022/01/09 18:34:18;;;;;;;0.77;0.77;;;17.50;65.70;;;16.80;62.86;98150.59;5036040;28;20652;-37
2022/01/09 18:36:44;;;;;;;0.70;0.70;;;17.50;65.70;;;16.84;62.72;98148.47;5019302;28;20552;-38
2022/01/09 18:39:14;;;;;;;1.27;0.80;;;17.50;65.60;;;16.84;62.86;98151.88;5019698;28;20211;-37
2022/01/09 18:41:44;;;;;;;0.75;0.75;;;17.50;65.70;;;16.85;62.38;98152.69;5020918;28;20188;-38
2022/01/09 18:44:11;;;;;;;0.70;0.70;;;17.50;65.70;;;16.83;63.04;98146.84;5019582;28;20196;-38
2022/01/09 18:46:38;;;;;;;0.70;0.70;;;17.50;65.80;;;16.88;62.74;98168.78;5019884;28;20188;-37
2022/01/09 18:49:05;;;;;;;0.80;0.80;;;17.50;65.80;;;16.84;62.74;98164.09;5052344;28;20195;-38
2022/01/09 18:51:31;;;;;;;0.82;0.82;;;17.60;65.80;;;16.84;62.64;98158.88;5018987;28;20199;-38
2022/01/09 18:53:57;;;;;;;0.70;0.60;;;17.60;65.80;;;16.85;62.65;98161.31;5019463;28;20549;-37
2022/01/09 18:56:23;;;;;;;0.70;0.70;;;17.60;65.70;;;16.89;62.36;98170.38;5018685;28;20240;-38
2022/01/09 18:58:50;;;;;;;0.80;0.80;;;17.60;66.40;;;16.91;62.41;98178.81;5035562;28;20199;-37
2022/01/09 19:01:18;;;;;;;0.80;0.80;;;17.60;65.50;;;16.73;62.41;98147.91;5019522;28;20191;-38
2022/01/09 19:03:45;;;;;;;0.60;0.60;;;17.60;65.50;;;16.90;62.17;98172.00;5035628;28;20365;-38
2022/01/09 19:06:11;;;;;;;0.80;0.80;;;17.60;65.40;;;16.72;61.86;98150.69;5035546;28;20207;-38
2022/01/09 19:08:38;;;;;;;0.63;0.63;;;17.60;65.30;;;16.83;62.01;98178.91;5053207;28;20179;-36
2022/01/09 19:11:04;;;;;;;0.90;0.90;;;17.60;65.30;;;16.85;62.06;98195.19;5019346;28;20597;-37
2022/01/09 19:13:30;;;;;;;0.60;0.60;;;17.60;65.40;;;16.85;62.54;98204.78;5019040;28;20218;-38
2022/01/09 19:16:00;;;;;;;0.80;0.80;;;17.60;65.50;;;16.85;62.39;98205.59;5052478;28;20211;-37
2022/01/09 19:18:31;;;;;;;0.60;0.60;;;17.60;65.50;;;16.82;62.80;98203.34;5052473;28;20282;-37
2022/01/09 19:20:57;;;;;;;0.65;0.65;;;17.60;65.70;;;16.86;62.61;98215.03;5020084;28;20258;-37
2022/01/09 19:23:23;;;;;;;0.70;0.70;;;17.60;65.80;;;16.84;62.62;98222.22;5035330;28;20664;-36
2022/01/09 19:25:49;;;;;;;0.70;0.70;;;17.60;65.70;;;16.78;62.66;98204.69;5018707;28;20198;-37
2022/01/09 19:28:15;;;;;;;0.95;0.80;;;17.60;65.70;;;16.85;62.31;98221.22;5053266;28;20187;-38
2022/01/09 19:30:41;;;;;;;0.80;0.80;;;17.60;65.60;;;16.86;62.44;98225.44;5018895;28;20191;-40
2022/01/09 19:33:07;;;;;;;0.80;0.80;;;17.60;65.50;;;16.85;62.38;98221.22;5053523;28;20194;-39
2022/01/09 19:35:33;;;;;;;0.77;0.77;;;17.60;65.50;;;16.90;62.49;98228.50;5002129;28;20239;-39
2022/01/09 19:37:59;;;;;;;1.38;0.93;;;17.60;65.50;;;16.92;62.18;98227.34;5053160;28;20629;-39
2022/01/09 19:40:25;;;;;;;0.55;0.55;;;17.70;65.60;;;16.66;62.29;98196.50;5018710;28;20188;-40
2022/01/09 19:42:51;;;;;;;1.10;0.90;;;17.70;65.60;;;16.88;62.39;98231.31;5021764;28;20601;-38
2022/01/09 19:45:17;;;;;;;0.70;0.60;;;17.70;65.40;;;16.83;62.69;98236.22;5055943;28;20188;-38
2022/01/09 19:47:43;;;;;;;0.70;0.70;;;17.60;65.50;;;16.90;62.41;98244.94;5039003;28;20330;-38
2022/01/09 19:50:10;;;;;;;2.05;1.02;;;17.70;65.50;;;16.82;62.62;98237.19;5055206;28;20196;-38
2022/01/09 19:52:36;;;;;;;1.05;0.77;;;17.70;65.50;;;16.88;62.61;98257.34;5039166;28;20250;-38
2022/01/09 19:55:03;;;;;;;1.08;0.93;;;17.70;65.40;;;16.91;62.52;98251.78;5055018;28;20224;-39
2022/01/09 19:57:30;;;;;;;0.70;0.70;;;17.70;65.50;;;16.83;62.41;98256.25;5056202;28;20218;-37
2022/01/09 19:59:56;;;;;;;0.65;0.65;;;17.70;65.50;;;16.85;62.57;98251.69;5038987;28;20195;-37
2022/01/09 20:02:25;;;;;;;0.90;0.90;;;17.70;65.40;;;16.93;61.69;98262.00;5038529;28;20188;-39
2022/01/09 20:04:52;;;;;;;0.75;0.75;;;17.70;65.20;;;16.94;61.21;98272.25;5055086;28;20257;-39
2022/01/09 20:07:18;;;;;;;0.88;0.88;;;17.70;64.80;;;16.96;61.02;98275.50;5038585;28;20191;-38
2022/01/09 20:09:44;;;;;;;0.80;0.80;;;17.60;64.40;;;16.87;61.10;98265.34;5037751;28;20245;-39
2022/01/09 20:12:11;;;;;;;1.08;0.82;;;17.60;64.40;;;16.82;61.36;98276.28;5055083;28;20636;-38
2022/01/09 20:14:40;;;;;;;0.93;0.90;;;17.60;64.50;;;16.86;61.52;98268.94;5038220;28;20183;-38
2022/01/09 20:17:06;;;;;;;0.75;0.60;;;17.50;64.60;;;16.65;61.75;98257.38;5038476;28;20184;-38
2022/01/09 20:19:32;;;;;;;0.80;0.80;;;17.50;64.90;;;16.69;61.99;98273.47;5022108;28;20192;-38
2022/01/09 20:21:58;;;;;;;0.82;0.82;;;17.40;65.10;;;16.53;62.20;98252.75;5021685;28;20213;-39
2022/01/09 20:24:25;;;;;;;0.77;0.77;;;17.40;65.30;;;16.47;62.37;98256.06;5022135;28;20194;-38
2022/01/09 20:26:52;;;;;;;0.90;0.90;;;17.30;65.50;;;16.53;62.60;98273.59;5038167;28;20192;-38
2022/01/09 20:29:18;;;;;;;0.80;0.80;;;17.30;65.70;;;16.54;62.82;98283.84;5022060;28;20188;-38
2022/01/09 20:31:46;;;;;;;0.70;0.70;;;17.30;65.90;;;16.43;62.84;98262.59;5037995;28;20202;-38
2022/01/09 20:34:14;;;;;;;0.80;0.80;;;17.20;65.90;;;16.52;62.90;98278.00;5005429;28;20207;-38
2022/01/09 20:36:40;;;;;;;0.80;0.80;;;17.20;65.90;;;16.49;62.93;98267.91;5021838;28;20211;-39
2022/01/09 20:39:07;;;;;;;1.23;0.93;;;17.20;66.10;;;16.51;62.97;98285.97;5038102;28;20248;-38
2022/01/09 20:41:33;;;;;;;0.75;0.75;;;17.20;66.30;;;16.50;63.08;98287.75;5038061;28;20191;-37
2022/01/09 20:43:59;;;;;;;1.52;0.93;;;17.20;66.40;;;16.36;63.14;98265.09;5037758;28;20641;-37
2022/01/09 20:46:25;;;;;;;0.93;0.90;;;17.20;66.40;;;16.49;62.91;98293.13;5055520;28;20258;-37
2022/01/09 20:48:51;;;;;;;0.80;0.80;;;17.20;66.40;;;16.52;63.13;98293.63;5037739;28;20270;-37
2022/01/09 20:51:18;;;;;;;1.00;1.00;;;17.20;66.40;;;16.31;63.14;98276.03;5021270;28;20187;-37
2022/01/09 20:53:44;;;;;;;1.00;0.90;;;17.20;66.40;;;16.50;63.19;98300.78;5005024;28;20211;-38
2022/01/09 20:56:10;;;;;;;0.88;0.88;;;17.20;66.50;;;16.51;63.26;98302.41;5037038;28;20229;-37
2022/01/09 20:58:36;;;;;;;2.78;1.00;;;17.20;66.50;;;16.36;63.11;98286.75;5053971;28;20230;-37
2022/01/09 21:01:02;;;;;;;1.30;0.90;;;17.20;66.50;;;16.44;63.41;98300.69;5037347;28;20192;-37
2022/01/09 21:03:28;;;;;;;1.40;0.90;;;17.20;66.50;;;16.51;63.19;98306.78;5021076;28;20218;-38
2022/01/09 21:05:55;;;;;;;0.90;0.90;;;17.20;66.50;;;16.47;63.15;98300.34;5053953;28;20187;-39
2022/01/09 21:08:21;;;;;;;1.08;0.90;;;17.20;66.60;;;16.38;63.27;98286.56;5020883;28;20661;-37
2022/01/09 21:10:47;;;;;;;0.80;0.80;;;17.20;66.50;;;16.55;63.08;98301.09;5037807;28;20188;-37
2022/01/09 21:13:13;;;;;;;0.98;0.90;;;17.20;66.40;;;16.50;63.61;98307.78;5037441;28;20270;-37
2022/01/09 21:15:40;;;;;;;1.45;1.00;;;17.20;66.30;;;16.51;63.31;98307.59;5020816;28;20207;-37
2022/01/09 21:18:07;;;;;;;1.67;0.90;;;17.20;66.50;;;16.33;63.48;98270.66;5037163;28;20434;-38
2022/01/09 21:20:34;;;;;;;1.10;1.00;;;17.20;66.60;;;16.60;63.41;98311.78;5036818;28;20459;-38
2022/01/09 21:23:01;;;;;;;2.17;0.90;;;17.30;66.70;;;16.24;63.07;98269.09;5037193;28;20668;-40
2022/01/09 21:25:29;;;;;;;0.80;0.80;;;17.30;66.70;;;16.57;63.18;98335.53;5020838;28;20184;-39
2022/01/09 21:27:57;;;;;;;0.73;0.73;;;17.30;66.60;;;16.52;63.14;98321.44;5036902;28;20203;-38
2022/01/09 21:30:23;;;;;;;0.63;0.63;;;17.20;66.40;;;16.53;63.12;98333.47;5053294;28;20547;-38
2022/01/09 21:32:50;;;;;;;0.95;0.90;;;17.20;66.40;;;16.46;63.35;98327.34;5053428;28;20264;-39
2022/01/09 21:35:16;;;;;;;0.90;0.90;;;17.20;66.40;;;16.55;63.66;98339.34;5054055;28;20199;-36
2022/01/09 21:37:43;;;;;;;0.90;0.80;;;17.20;66.50;;;16.55;63.68;98344.53;5036903;28;20557;-36
2022/01/09 21:40:10;;;;;;;0.77;0.75;;;17.20;66.70;;;16.58;63.37;98342.38;5053319;28;20195;-36
2022/01/09 21:42:36;;;;;;;1.20;1.10;;;17.30;66.80;;;16.60;63.62;98350.84;5053152;28;20632;-39
2022/01/09 21:45:02;;;;;;;1.02;1.00;;;17.30;66.70;;;16.60;64.06;98350.84;5053548;28;20269;-39
2022/01/09 21:47:28;;;;;;;1.10;1.00;;;17.30;66.70;;;16.62;63.68;98345.50;5020132;28;20278;-38
2022/01/09 21:49:54;;;;;;;1.90;0.90;;;17.30;66.70;;;16.62;63.47;98351.50;5053574;28;20193;-37
2022/01/09 21:52:20;;;;;;;0.82;0.82;;;17.30;66.80;;;16.65;64.00;98355.53;5020630;28;20188;-39
2022/01/09 21:54:46;;;;;;;1.13;1.13;;;17.30;66.80;;;16.66;63.68;98352.75;5019756;28;20234;-37
2022/01/09 21:57:12;;;;;;;1.00;0.95;;;17.30;66.80;;;16.58;63.35;98339.78;5036007;28;20192;-36
2022/01/09 21:59:38;;;;;;;0.85;0.85;;;17.30;66.70;;;16.66;63.23;98359.78;5019973;28;20187;-37
2022/01/09 22:02:04;;;;;;;0.93;0.93;;;17.40;66.50;;;16.74;63.29;98365.72;5019860;28;20211;-38
2022/01/09 22:04:36;;;;;;;0.90;0.88;;;17.40;66.50;;;16.75;63.05;98366.53;5035869;28;20278;-37
2022/01/09 22:07:03;;;;;;;1.13;0.90;;;17.40;66.40;;;16.79;63.02;98370.44;5021710;28;20187;-36
2022/01/09 22:09:30;;;;;;;1.10;1.00;;;17.50;66.40;;;16.78;62.62;98363.59;5036541;28;20183;-36
2022/01/09 22:11:58;;;;;;;1.08;0.98;;;17.50;66.20;;;16.80;62.59;98373.84;5020246;28;20183;-37
2022/01/09 22:14:25;;;;;;;0.75;0.75;;;17.50;66.10;;;16.89;62.50;98376.19;5036356;28;20218;-38
2022/01/09 22:16:51;;;;;;;1.00;0.90;;;17.50;66.00;;;16.90;62.54;98377.81;5052576;28;20627;-36
2022/01/09 22:19:17;;;;;;;0.95;0.90;;;17.50;65.90;;;16.86;62.56;98381.78;5052776;28;20588;-37
2022/01/09 22:21:43;;;;;;;0.80;0.80;;;17.50;65.80;;;16.64;62.73;98351.31;5020087;28;20191;-36
2022/01/09 22:24:09;;;;;;;0.80;0.80;;;17.50;65.90;;;16.80;62.96;98368.63;5053046;28;20191;-37
2022/01/09 22:26:36;;;;;;;1.00;1.00;;;17.50;65.90;;;16.83;62.52;98373.47;5035765;28;20223;-38
2022/01/09 22:29:02;;;;;;;1.10;1.00;;;17.50;65.80;;;16.92;62.41;98380.25;5035616;28;20619;-38
2022/01/09 22:31:28;;;;;;;2.17;0.90;;;17.60;65.90;;;16.80;62.27;98358.22;5035750;28;20596;-38
2022/01/09 22:33:54;;;;;;;1.20;1.10;;;17.60;65.90;;;16.97;62.38;98391.75;5019764;28;20252;-37
2022/01/09 22:36:20;;;;;;;1.10;0.90;;;17.60;66.70;;;16.88;62.57;98385.00;5019988;28;20218;-38
2022/01/09 22:38:46;;;;;;;0.95;0.95;;;17.60;65.90;;;16.94;62.40;98386.91;5035581;28;20656;-37
2022/01/09 22:41:12;;;;;;;1.67;0.93;;;17.60;65.80;;;17.00;62.10;98401.84;5019537;28;20245;-37
2022/01/09 22:43:41;;;;;;;0.90;0.90;;;17.60;65.70;;;16.97;62.02;98396.97;5035803;28;20574;-38
2022/01/09 22:46:07;;;;;;;1.83;0.77;;;17.70;65.70;;;17.04;61.95;98400.50;5052737;28;20176;-38
2022/01/09 22:48:33;;;;;;;0.93;0.90;;;17.70;65.40;;;17.08;61.66;98406.97;5035760;28;20187;-38
2022/01/09 22:50:59;;;;;;;0.80;0.80;;;17.80;65.30;;;17.07;61.68;98409.75;5035705;28;20233;-38
2022/01/09 22:53:26;;;;;;;0.73;0.73;;;17.80;65.10;;;17.09;61.56;98410.41;5036114;28;20237;-37
2022/01/09 22:55:51;;;;;;;1.08;0.98;;;17.90;65.00;;;17.15;61.39;98419.31;5018604;28;20239;-40
2022/01/09 22:58:17;;;;;;;0.80;0.80;;;17.90;64.90;;;17.18;61.46;98416.34;5052159;28;20195;-38
2022/01/09 23:00:47;;;;;;;0.73;0.73;;;17.90;64.80;;;17.13;61.46;98421.28;5052344;28;20195;-38
2022/01/09 23:03:14;;;;;;;0.85;0.82;;;17.90;64.60;;;17.08;61.37;98420.00;5036010;28;20241;-37
